Aviation Digital Data Service (ADDS)

Output produced by METARs form (0640 UTC 27 March 2017)
found at http://www.aviationweather.gov/adds/metars/
 
TAF MSLP 270325Z 2706/2806 04003KT CAVOK TX33/2718Z TN24/2710Z 
     FM271200 9999 FEW075 
     FM271800 22009KT 9999 SCT060 
     FM280000 30005KT
       
TAF MSSS 270325Z 2706/2806 35005KT CAVOK TX31/2720Z TN20/2712Z 
     FM271800 17010KT 9999 SCT040 
     FM280000 CAVOK